createdAt,value
2019-06-26T00:04:50.702Z,100525.23
2019-06-26T00:09:54.800Z,100523.87
2019-06-26T00:14:59.925Z,100527.74
2019-06-26T00:20:03.980Z,100529.86
2019-06-26T00:25:09.763Z,100538.63
2019-06-26T00:30:13.841Z,100544.60
2019-06-26T00:35:19.955Z,100544.60
2019-06-26T00:40:25.062Z,100546.44
2019-06-26T00:45:30.555Z,100550.28
2019-06-26T00:50:35.703Z,100553.80
2019-06-26T00:55:40.768Z,100554.91
2019-06-26T01:00:51.998Z,100547.83
2019-06-26T01:05:57.770Z,100552.66
2019-06-26T01:11:03.435Z,100548.39
2019-06-26T01:16:09.702Z,100554.82
2019-06-26T01:21:14.769Z,100553.19
2019-06-26T01:26:19.926Z,100546.97
2019-06-26T01:31:25.031Z,100547.91
2019-06-26T01:36:30.110Z,100547.78
2019-06-26T01:41:36.293Z,100550.09
2019-06-26T01:46:41.469Z,100549.49
2019-06-26T01:51:49.334Z,100549.49
2019-06-26T01:56:54.426Z,100552.02
2019-06-26T02:01:59.469Z,100555.12
2019-06-26T02:07:04.962Z,100551.55
2019-06-26T02:12:10.043Z,100543.89
2019-06-26T02:17:15.120Z,100550.08
2019-06-26T02:22:20.421Z,100543.82
2019-06-26T02:27:25.891Z,100543.77
2019-06-26T02:32:30.996Z,100546.00
2019-06-26T02:37:37.317Z,100544.94
2019-06-26T02:42:43.528Z,100546.59
2019-06-26T02:47:48.652Z,100548.02
2019-06-26T02:52:53.713Z,100548.48
2019-06-26T02:57:58.771Z,100547.83
2019-06-26T03:03:03.868Z,100545.55
2019-06-26T03:08:08.896Z,100549.58
2019-06-26T03:13:14.020Z,100550.13
2019-06-26T03:18:19.461Z,100545.14
2019-06-26T03:23:25.036Z,100547.81
2019-06-26T03:28:30.148Z,100543.33
2019-06-26T03:33:35.317Z,100538.56
2019-06-26T03:38:40.427Z,100546.11
2019-06-26T03:43:45.904Z,100550.14
2019-06-26T03:48:51.220Z,100546.09
2019-06-26T03:53:56.364Z,100546.09
2019-06-26T03:59:01.557Z,100543.20
2019-06-26T04:04:06.642Z,100546.72
2019-06-26T04:09:11.816Z,100561.58
2019-06-26T04:14:16.989Z,100564.70
2019-06-26T04:19:23.218Z,100570.27
2019-06-26T04:24:28.379Z,100570.15
2019-06-26T04:29:33.754Z,100574.84
2019-06-26T04:34:39.331Z,100570.73
2019-06-26T04:39:44.720Z,100570.73
2019-06-26T04:44:49.841Z,100567.94
2019-06-26T04:49:55.260Z,100567.94
2019-06-26T04:55:00.368Z,100569.48
2019-06-26T05:00:07.896Z,100578.30
2019-06-26T05:05:13.271Z,100578.92
2019-06-26T05:10:19.076Z,100576.78
2019-06-26T05:15:24.177Z,100575.98
2019-06-26T05:20:29.229Z,100578.11
2019-06-26T05:25:39.579Z,100576.22
2019-06-26T05:30:45.366Z,100579.69
2019-06-26T05:35:50.484Z,100579.95
2019-06-26T05:40:55.484Z,100585.84
2019-06-26T05:46:00.514Z,100588.19
2019-06-26T05:51:06.869Z,100591.01
2019-06-26T05:56:12.421Z,100598.69
2019-06-26T06:01:17.964Z,100605.00
2019-06-26T06:06:23.408Z,100606.03
2019-06-26T06:11:28.924Z,100602.42
2019-06-26T06:16:46.883Z,100608.15
2019-06-26T06:21:42.328Z,100615.08
2019-06-26T06:26:47.399Z,100605.64
2019-06-26T06:31:52.970Z,100605.39
2019-06-26T06:36:58.691Z,100615.66
2019-06-26T06:42:04.156Z,100614.02
2019-06-26T06:47:09.581Z,100618.43
2019-06-26T06:52:16.798Z,100617.38
2019-06-26T06:57:21.627Z,100623.17
2019-06-26T07:02:26.655Z,100622.61
2019-06-26T07:07:31.803Z,100625.12
2019-06-26T07:12:39.231Z,100626.24
2019-06-26T07:17:44.300Z,100625.80
2019-06-26T07:22:50.077Z,100631.14
2019-06-26T07:27:55.403Z,100627.68
2019-06-26T07:33:00.502Z,100628.52
2019-06-26T07:38:05.641Z,100632.82
2019-06-26T07:43:10.647Z,100638.68
2019-06-26T07:48:15.827Z,100634.95
2019-06-26T07:53:21.095Z,100642.58
2019-06-26T07:58:26.110Z,100642.34
2019-06-26T08:03:32.075Z,100633.31
2019-06-26T08:08:37.233Z,100634.27
2019-06-26T08:13:42.382Z,100643.83
2019-06-26T08:18:48.889Z,100644.04
2019-06-26T08:23:54.339Z,100642.41
2019-06-26T08:29:00.321Z,100643.36
2019-06-26T08:34:05.405Z,100636.59
2019-06-26T08:39:10.828Z,100644.16
2019-06-26T08:44:19.023Z,100643.31
2019-06-26T08:49:26.404Z,100645.91
2019-06-26T08:54:33.608Z,100642.11
2019-06-26T08:59:38.730Z,100646.19
2019-06-26T09:04:43.815Z,100642.98
2019-06-26T09:09:49.341Z,100643.94
2019-06-26T09:14:54.434Z,100645.18
2019-06-26T09:19:59.603Z,100646.00
2019-06-26T09:25:21.645Z,100644.77
2019-06-26T09:30:18.355Z,100648.64
2019-06-26T09:35:23.473Z,100654.24
2019-06-26T09:40:31.863Z,100653.72
2019-06-26T09:45:37.250Z,100648.24
2019-06-26T09:50:43.014Z,100650.24
2019-06-26T09:55:58.510Z,100644.37
2019-06-26T10:01:03.708Z,100643.15
2019-06-26T10:06:09.037Z,100635.60
2019-06-26T10:11:14.933Z,100640.66
2019-06-26T10:16:20.118Z,100642.12
2019-06-26T10:21:26.753Z,100629.06
2019-06-26T10:26:32.872Z,100633.20
2019-06-26T10:31:37.912Z,100626.72
2019-06-26T10:36:44.291Z,100630.35
2019-06-26T10:41:49.956Z,100638.20
2019-06-26T10:46:58.573Z,100629.97
2019-06-26T10:52:04.927Z,100623.45
2019-06-26T10:57:10.047Z,100623.45
2019-06-26T11:02:16.992Z,100616.25
2019-06-26T11:07:22.252Z,100620.06
2019-06-26T11:12:28.048Z,100612.64
2019-06-26T11:17:34.518Z,100607.36
2019-06-26T11:22:39.674Z,100603.80
2019-06-26T11:27:44.714Z,100600.39
2019-06-26T11:32:50.149Z,100599.25
2019-06-26T11:37:58.170Z,100591.10
2019-06-26T11:43:03.423Z,100595.45
2019-06-26T11:48:09.502Z,100595.12
2019-06-26T11:53:14.771Z,100588.53
2019-06-26T11:58:22.708Z,100582.92
2019-06-26T12:03:37.831Z,100581.99
2019-06-26T12:08:43.331Z,100584.38
2019-06-26T12:13:48.474Z,100577.66
2019-06-26T12:18:53.586Z,100576.12
2019-06-26T12:24:00.113Z,100571.30
2019-06-26T12:29:05.264Z,100569.11
2019-06-26T12:34:10.394Z,100565.34
2019-06-26T12:39:15.599Z,100578.97
2019-06-26T12:44:21.571Z,100575.45
2019-06-26T12:49:27.129Z,100569.41
2019-06-26T12:54:32.238Z,100565.82
2019-06-26T12:59:52.705Z,100574.49
2019-06-26T13:04:46.214Z,100572.16
2019-06-26T13:09:51.593Z,100567.90
2019-06-26T13:14:57.468Z,100563.30
2019-06-26T13:20:02.575Z,100563.84
2019-06-26T13:25:15.934Z,100560.75
2019-06-26T13:30:27.797Z,100554.99
2019-06-26T13:35:33.095Z,100550.61
2019-06-26T13:40:41.106Z,100548.69
2019-06-26T13:45:46.449Z,100547.23
2019-06-26T13:51:08.806Z,100541.85
2019-06-26T13:56:04.326Z,100544.16
2019-06-26T14:01:11.451Z,100536.07
2019-06-26T14:06:19.661Z,100530.39
2019-06-26T14:11:24.727Z,100530.98
2019-06-26T14:16:31.880Z,100533.81
2019-06-26T14:21:38.585Z,100528.56
2019-06-26T14:26:43.690Z,100520.17
2019-06-26T14:31:51.579Z,100523.80
2019-06-26T14:37:03.840Z,100521.56
2019-06-26T14:42:09.014Z,100520.47
2019-06-26T14:47:15.599Z,100517.30
2019-06-26T14:52:22.301Z,100521.02
2019-06-26T14:57:27.638Z,100518.00
2019-06-26T15:02:37.589Z,100502.63
2019-06-26T15:07:44.111Z,100501.11
2019-06-26T15:12:49.722Z,100495.42
2019-06-26T15:17:58.301Z,100495.81
2019-06-26T15:23:06.036Z,100506.00
2019-06-26T15:28:12.286Z,100498.84
2019-06-26T15:33:19.322Z,100496.81
2019-06-26T15:38:24.543Z,100479.72
2019-06-26T15:43:31.751Z,100483.10
2019-06-26T15:48:37.040Z,100479.82
2019-06-26T15:53:42.090Z,100472.16
2019-06-26T15:58:47.137Z,100471.23
2019-06-26T16:03:52.294Z,100472.33
2019-06-26T16:08:57.468Z,100473.89
2019-06-26T16:14:02.531Z,100474.17
2019-06-26T16:19:11.819Z,100475.55
2019-06-26T16:24:16.864Z,100474.41
2019-06-26T16:29:24.321Z,100477.37
2019-06-26T16:34:31.114Z,100485.94
2019-06-26T16:39:36.396Z,100489.75
2019-06-26T16:44:47.015Z,100487.53
2019-06-26T16:49:52.321Z,100493.05
2019-06-26T16:54:58.527Z,100498.66
2019-06-26T17:00:09.540Z,100504.54
2019-06-26T17:05:12.543Z,100503.28
2019-06-26T17:10:18.175Z,100501.91
2019-06-26T17:15:23.264Z,100500.90
2019-06-26T17:20:28.482Z,100510.23
2019-06-26T17:25:33.648Z,100509.03
2019-06-26T17:30:38.749Z,100509.36
2019-06-26T17:35:43.835Z,100516.41
2019-06-26T17:40:50.251Z,100514.86
2019-06-26T17:46:00.849Z,100532.72
2019-06-26T17:51:06.257Z,100525.13
2019-06-26T17:56:11.345Z,100530.14
2019-06-26T18:01:19.232Z,100527.89
2019-06-26T18:06:27.053Z,100531.16
2019-06-26T18:11:32.626Z,100532.30
2019-06-26T18:16:38.557Z,100538.20
2019-06-26T18:21:44.909Z,100534.41
2019-06-26T18:26:51.483Z,100542.11
2019-06-26T18:31:56.652Z,100543.66
2019-06-26T18:37:02.310Z,100551.86
2019-06-26T18:42:07.536Z,100561.73
2019-06-26T18:47:12.952Z,100563.34
2019-06-26T18:52:21.692Z,100574.06
2019-06-26T18:57:28.270Z,100569.27
2019-06-26T19:02:33.425Z,100579.86
2019-06-26T19:07:38.668Z,100577.45
2019-06-26T19:12:44.773Z,100587.39
2019-06-26T19:17:49.880Z,100590.72
2019-06-26T19:22:54.998Z,100591.16
2019-06-26T19:28:00.262Z,100590.22
2019-06-26T19:33:12.577Z,100594.59
2019-06-26T19:38:17.696Z,100602.81
2019-06-26T19:43:23.150Z,100613.53
2019-06-26T19:48:28.279Z,100618.25
2019-06-26T19:53:33.468Z,100617.90
2019-06-26T19:58:39.743Z,100635.28
2019-06-26T20:03:44.931Z,100635.59
2019-06-26T20:08:54.650Z,100642.48
2019-06-26T20:13:57.100Z,100644.30
2019-06-26T20:19:02.302Z,100648.36
2019-06-26T20:24:07.355Z,100650.97
2019-06-26T20:29:12.873Z,100662.61
2019-06-26T20:34:18.424Z,100664.23
2019-06-26T20:39:23.533Z,100669.83
2019-06-26T20:44:28.899Z,100673.28
2019-06-26T20:49:34.070Z,100683.55
2019-06-26T20:54:39.368Z,100700.81
2019-06-26T20:59:44.492Z,100703.80
2019-06-26T21:04:50.225Z,100699.89
2019-06-26T21:09:55.317Z,100705.45
2019-06-26T21:15:00.434Z,100715.85
2019-06-26T21:20:06.140Z,100713.92
2019-06-26T21:25:18.967Z,100724.28
2019-06-26T21:30:18.353Z,100721.53
2019-06-26T21:35:23.776Z,100727.63
2019-06-26T21:40:28.962Z,100735.47
2019-06-26T21:45:34.142Z,100732.33
2019-06-26T21:50:39.253Z,100745.42
2019-06-26T21:55:44.388Z,100743.09
2019-06-26T22:01:07.421Z,100742.31
2019-06-26T22:06:30.508Z,100751.91
2019-06-26T22:11:43.002Z,100753.66
2019-06-26T22:16:48.282Z,100764.02
2019-06-26T22:21:53.717Z,100761.66
2019-06-26T22:26:58.825Z,100764.98
2019-06-26T22:32:04.346Z,100770.64
2019-06-26T22:37:11.027Z,100767.07
2019-06-26T22:42:16.492Z,100784.44
2019-06-26T22:47:21.877Z,100789.13
2019-06-26T22:52:26.953Z,100792.95
2019-06-26T22:57:32.517Z,100799.93
2019-06-26T23:02:37.581Z,100801.27
2019-06-26T23:07:43.170Z,100812.67
2019-06-26T23:12:48.263Z,100807.24
2019-06-26T23:17:53.703Z,100809.34
2019-06-26T23:22:58.834Z,100817.84
2019-06-26T23:28:04.203Z,100818.46
2019-06-26T23:33:09.793Z,100822.88
2019-06-26T23:38:16.326Z,100832.54
2019-06-26T23:43:21.373Z,100836.59
2019-06-26T23:48:26.705Z,100832.46
2019-06-26T23:53:31.757Z,100841.98
2019-06-26T23:58:38.962Z,100848.47
